AirNav   Everest Fuels
 
 1205 users online  

CA99 Kilroy Ac8-Long Beach Heliport
Long Beach, California, USA

GOING TO LONG BEACH?


FAA INFORMATION EFFECTIVE 26 MARCH 2020

Location

FAA Identifier: CA99
Lat/Long: 33-48-26.7000N 118-08-44.6600W
33-48.445000N 118-08.744333W
33.8074167,-118.1457389
(estimated)
Elevation: 121 ft. / 37 m (estimated)
Variation: 14E (1990)
From city: 3 miles NE of LONG BEACH, CA
Time zone: UTC -7 (UTC -8 during Standard Time)
Zip code: 90806

Heliport Operations

Heliport use: Private use. Permission required prior to landing
Activation date: 05/1990
Control tower: no
ARTCC: LOS ANGELES CENTER
FSS: HAWTHORNE FLIGHT SERVICE STATION
Attendance: UNATNDD
Wind indicator: lighted
Segmented circle: no
Lights: FOR PERIMETER LGTS CALL 310-988-1160

Heliport Communications

WX ASOS at LGB (0.7 nm NW): PHONE 562-424-0572
WX AWOS-3PT at CPM (7 nm NW): 127.150 (310-631-4958)
WX ASOS at FUL (9 nm NE): PHONE 714-870-1372
WX ASOS at HHR (12 nm NW): PHONE 310-973-8930
WX ASOS at LAX (15 nm NW): PHONE 310-568-1486
WX ASOS at SNA (16 nm SE): PHONE 714-424-0590
WX AWOS-3PT at EMT (18 nm N): 118.75 ((626) 444-1107)
WX ASOS at SMO (20 nm NW): PHONE 310-392-6453

Nearby radio navigation aids

VOR radial/distance  VOR name  Freq  Var
SLIr273/4.8SEAL BEACH VORTAC115.7015E
LAXr103/16.1LOS ANGELES VORTAC113.6015E
SMOr113/19.7SANTA MONICA VOR/DME110.8015E
ELBr277/22.1EL TORO VOR/DME117.2014E
POMr213/24.1POMONA VORTAC110.4015E
SXCr013/29.3SANTA CATALINA VORTAC111.4015E
VNYr130/30.3VAN NUYS VOR/DME113.1015E
PDZr243/31.4PARADISE VORTAC112.2015E
RALr242/(35.8)RIVERSIDE VOR112.4014E

Heliport Services

Runway Information

Helipad H1

Dimensions: 50 x 50 ft. / 15 x 15 m
Surface: concrete
ROOFTOP.
Runway edge lights: PERI
Latitude: 33-48.445000N
Longitude: 118-08.744333W
Elevation: 121.0 ft.
Traffic pattern: leftleft

Heliport Ownership and Management from official FAA records

Ownership: Privately-owned
Owner: KILROY INDUSTRIES
2250 E. IMPERIAL HWY
EL SEGUNDO, CA 90245
Phone 213-772-1193
Manager: KILROY LONG BEACH ASSOCIATES
3780 KILROY AIRPORT WAY 530
LONG BEACH, CA 90806
Phone 310-988-1160

Additional Remarks

FOR CD CTC LOS ANGELES ARTCC AT 661-575-2079.

Instrument Procedures

There are no published instrument procedures at CA99.

Some nearby airports with instrument procedures:

KLGB - Long Beach Airport (Daugherty Field) (1 nm NW)
KSLI - Los Alamitos Army Airfield (5 nm E)
KFUL - Fullerton Municipal Airport (9 nm NE)
KTOA - Zamperini Field Airport (10 nm W)
KHHR - Jack Northrop Field/Hawthorne Municipal Airport (12 nm NW)
KLAX - Los Angeles International Airport (15 nm NW)
KSNA - John Wayne-Orange County Airport (16 nm SE)
KEMT - San Gabriel Valley Airport (18 nm N)
KSMO - Santa Monica Municipal Airport (20 nm NW)
 
Loc | Ops | Rwys | IFR | FBO | Links
Com | Nav | Svcs | Stats | Notes

San Bernardino International Airport Authority
 
Area around CA99 (Kilroy Ac8-Long Beach Heliport)
 
Road maps at: MapQuest Bing Google
 
Aerial photo
No photo
 
Sectional chart

 
Airport distance calculator
Flying to Kilroy Ac8-Long Beach Heliport? Find the distance to fly.

From to CA99

Sunrise and sunset
Times for 07-Apr-2020
 Local
(UTC-7)
 Zulu
(UTC)
Morning civil twilight06:0613:06
Sunrise06:3213:32
Sunset19:1702:17
Evening civil twilight19:4302:43

Current date and time
Zulu (UTC)  07-Apr-2020 17:30:47
Local (UTC-7)  07-Apr-2020 10:30:47
 
METAR
KLGB 071653Z 10004KT 10SM BKN110 15/09 A3006 RMK AO2 SLP179 T01500089
KSLI 
6nm SE 
071658Z 05005KT 10SM FEW060 BKN075 BKN100 BKN150 15/08 A3005 RMK AO2A SLP179 T01470077
KTOA 
9nm W 
071647Z VRB03KT 10SM SCT055 15/09 A3006
KFUL 
9nm NE 
071653Z 00000KT 10SM BKN080 OVC110 16/09 A3005 RMK AO2 SLP175 T01560094
KHHR 
11nm NW 
071353Z OOOOOKT 6SM -RA SCT047 OVC060 13/09 A3006 RMK KHHR OBSERVER KR
KLAX 
14nm NW 
071653Z 04005KT 10SM FEW010 SCT065 BKN100 18/09 A3006 RMK AO2 SLP177 T01780089
KCQT 
15nm N 
071652Z AUTO VRB03KT 10SM FEW060 SCT120 17/06 A3006 RMK AO2 SLP176 T01720061
KSNA 
16nm SE 
071653Z 02003KT 10SM FEW013 OVC070 17/09 A3006 RMK AO2 SLP178 T01670094
KEMT 
17nm N 
071645Z VRB03KT 10SM FEW050 BKN100 14/09 A3006
KSMO 
20nm NW 
071651Z VRB05KT 10SM SCT100 16/08 A3006 RMK AO2 SLP179 T01560083
TAF
KLGB 071120Z 0712/0812 VRB03KT P6SM BKN040 FM071800 19008KT 6SM -SHRA BR OVC030 FM072100 24008KT 4SM -SHRA OVC025 FM080400 VRB03KT P6SM VCSH BKN040
KSLI 
6nm SE 
071300Z 0713/0819 VRB06KT 9000 -RA OVC050 QNH2992INS BECMG 0801/0802 VRB06KT 9000 -SHRA BKN030 QNH2993INS BECMG 0804/0805 26012G18KT 9000 -SHRA OVC010 QNH2999INS BECMG 0807/0808 VRB06KT 9000 RA BKN018 QNH3003INS TX19/0721Z TN10/0807Z
KLAX 
14nm NW 
071508Z 0715/0818 06005KT P6SM SCT060 BKN070 BKN100 FM071800 25010KT 6SM -SHRA BR OVC030 FM080200 26006KT P6SM -SHRA BKN040 FM080600 VRB03KT P6SM VCSH BKN050
KSNA 
16nm SE 
071128Z 0712/0812 VRB04KT P6SM -SHRA SCT025 BKN035 FM071800 21010KT P6SM -SHRA SCT015 BKN025 TEMPO 0718/0722 3SM RA BKN010 FM080300 18005KT P6SM -SHRA SCT025 BKN035 FM080900 VRB03KT P6SM VCSH SCT015 BKN025
KSMO 
20nm NW 
071120Z 0712/0812 VRB03KT P6SM OVC090 FM071900 23008KT 6SM -SHRA BR OVC030 FM080400 VRB03KT P6SM VCSH BKN040
NOTAMs
Click for the latest NOTAMs
NOTAMs are issued by the DoD/FAA and will open in a separate window not controlled by AirNav.

 

 
 

Would you like to see your business listed on this page?

 If your business provides an interesting product or service to pilots, flight crews, aircraft, or users of the Kilroy Ac8-Long Beach Heliport, you should consider listing it here.  To start the listing process, click on the button below
 
Add a business
 

Other Pages about Kilroy Ac8-Long Beach Heliport

Update a link
 
Copyright © AirNav, LLC. All rights reserved. Privacy Policy  Contact